Time;durP1;ratioP1;P1;durP2;ratioP2;P2;SDS_P1;SDS_P2;PMS_P1;PMS_P2;Temp;Humidity;BMP_temperature;BMP_pressure;BME280_temperature;BME280_humidity;BME280_pressure;Samples;Min_cycle;Max_cycle;Signal;HPM_P1;HPM_P2
2021/04/09 00:01:45;;;;;;;15.40;7.47;;;8.30;67.60;;;;;;5063881;28;20116;-60
2021/04/09 00:04:16;;;;;;;8.43;5.68;;;8.30;67.60;;;;;;5068458;28;20040;-60
2021/04/09 00:06:42;;;;;;;11.32;6.80;;;8.40;67.70;;;;;;5073471;28;20035;-60
2021/04/09 00:09:09;;;;;;;13.60;8.48;;;8.30;67.70;;;;;;5072980;28;20024;-60
2021/04/09 00:11:36;;;;;;;12.15;6.75;;;8.40;67.80;;;;;;5072449;28;20043;-60
2021/04/09 00:14:04;;;;;;;14.93;7.25;;;8.30;67.70;;;;;;5073209;28;20124;-60
2021/04/09 00:16:30;;;;;;;13.02;6.70;;;8.30;67.80;;;;;;5067295;28;20029;-60
2021/04/09 00:18:55;;;;;;;9.82;5.60;;;8.30;67.90;;;;;;5059442;28;20105;-60
2021/04/09 00:21:21;;;;;;;10.23;6.57;;;8.40;67.90;;;;;;5072959;28;20032;-60
2021/04/09 00:23:47;;;;;;;11.45;6.63;;;8.30;67.90;;;;;;5072878;28;20025;-60
2021/04/09 00:26:13;;;;;;;10.20;5.55;;;8.30;68.00;;;;;;5072334;28;20392;-60
2021/04/09 00:28:39;;;;;;;12.50;8.00;;;8.30;68.00;;;;;;5058490;28;20020;-60
2021/04/09 00:31:06;;;;;;;11.23;4.50;;;8.30;68.00;;;;;;5072799;28;20044;-60
2021/04/09 00:33:31;;;;;;;9.05;6.07;;;8.40;68.10;;;;;;5071858;28;20169;-60
2021/04/09 00:35:57;;;;;;;20.58;5.88;;;8.40;68.10;;;;;;5072607;28;20111;-60
2021/04/09 00:38:23;;;;;;;15.93;8.25;;;8.30;68.00;;;;;;5072902;28;20086;-60
2021/04/09 00:40:49;;;;;;;13.13;7.45;;;8.40;68.00;;;;;;5071792;28;20028;-60
2021/04/09 00:43:14;;;;;;;9.00;5.70;;;8.30;67.90;;;;;;5072216;28;20063;-60
2021/04/09 00:45:43;;;;;;;12.55;6.38;;;8.30;68.10;;;;;;5072507;28;20028;-60
2021/04/09 00:48:09;;;;;;;10.88;6.72;;;8.30;68.20;;;;;;5071876;28;20539;-60
2021/04/09 00:50:37;;;;;;;15.77;5.93;;;8.30;68.20;;;;;;5072604;28;20058;-59
2021/04/09 00:53:07;;;;;;;10.90;6.25;;;8.30;68.30;;;;;;5075254;28;20525;-60
2021/04/09 00:55:33;;;;;;;8.02;5.78;;;8.30;68.40;;;;;;5092680;28;20420;-60
2021/04/09 00:58:01;;;;;;;8.00;4.80;;;8.30;68.40;;;;;;5092738;28;20467;-60
2021/04/09 01:00:27;;;;;;;11.32;6.38;;;8.30;68.40;;;;;;5091870;28;20044;-60
2021/04/09 01:02:57;;;;;;;12.25;6.82;;;8.30;68.40;;;;;;5092952;28;20035;-60
2021/04/09 01:05:22;;;;;;;15.68;7.15;;;8.30;68.40;;;;;;5091505;28;20074;-60
2021/04/09 01:07:48;;;;;;;11.23;5.75;;;8.30;68.40;;;;;;5091890;28;20044;-60
2021/04/09 01:10:23;;;;;;;13.15;7.07;;;8.30;68.50;;;;;;5092500;28;20040;-60
2021/04/09 01:12:49;;;;;;;15.27;8.00;;;8.20;68.50;;;;;;5091687;28;20040;-60
2021/04/09 01:15:17;;;;;;;18.45;6.75;;;8.20;68.50;;;;;;5091834;28;20522;-60
2021/04/09 01:17:58;;;;;;;10.82;6.32;;;8.20;68.50;;;;;;5092458;28;20047;-60
2021/04/09 01:20:39;;;;;;;15.30;6.55;;;8.20;68.70;;;;;;5092473;28;20059;-60
2021/04/09 01:23:33;;;;;;;9.25;4.95;;;8.20;68.80;;;;;;5090553;28;20047;-60
2021/04/09 01:26:32;;;;;;;17.13;5.35;;;8.20;68.90;;;;;;5081967;28;20024;-61
2021/04/09 01:29:24;;;;;;;10.05;6.13;;;8.20;69.10;;;;;;5077822;28;20047;-60
2021/04/09 01:32:01;;;;;;;13.90;7.40;;;8.20;69.10;;;;;;5092278;28;20036;-60
2021/04/09 01:34:32;;;;;;;9.43;6.03;;;8.20;69.10;;;;;;5092376;28;20036;-60
2021/04/09 01:37:04;;;;;;;21.88;6.32;;;8.10;69.20;;;;;;5091694;28;20078;-60
2021/04/09 01:39:35;;;;;;;15.45;6.80;;;8.10;69.20;;;;;;5092539;28;20028;-60
2021/04/09 01:42:07;;;;;;;11.50;6.07;;;8.10;69.40;;;;;;5092264;28;20108;-60
2021/04/09 01:44:34;;;;;;;13.73;5.28;;;8.10;69.50;;;;;;5092594;28;20031;-60
2021/04/09 01:47:02;;;;;;;14.45;7.65;;;8.10;69.60;;;;;;5092199;28;20035;-60
2021/04/09 01:49:31;;;;;;;11.18;6.22;;;8.10;69.60;;;;;;5091745;28;20024;-60
2021/04/09 01:51:59;;;;;;;12.75;6.68;;;8.10;69.50;;;;;;5088767;28;20080;-60
2021/04/09 01:54:26;;;;;;;11.40;4.95;;;8.20;69.70;;;;;;5071883;28;20033;-60
2021/04/09 01:56:54;;;;;;;12.15;6.72;;;8.10;69.70;;;;;;5062403;28;20563;-60
2021/04/09 01:59:22;;;;;;;11.50;6.47;;;8.10;69.80;;;;;;5073447;28;20040;-60
2021/04/09 02:01:49;;;;;;;12.93;7.20;;;8.20;70.00;;;;;;5075258;28;20039;-60
2021/04/09 02:04:21;;;;;;;16.33;7.53;;;8.10;70.00;;;;;;5071335;28;20025;-60
2021/04/09 02:06:49;;;;;;;14.00;6.22;;;8.20;70.00;;;;;;5067832;28;20435;-60
2021/04/09 02:09:18;;;;;;;15.27;8.15;;;8.10;70.00;;;;;;5058669;28;20048;-60
2021/04/09 02:11:47;;;;;;;14.45;7.25;;;8.10;70.10;;;;;;5072101;28;20051;-59
2021/04/09 02:14:15;;;;;;;12.50;6.68;;;8.20;70.10;;;;;;5074923;28;20024;-60
2021/04/09 02:16:44;;;;;;;14.23;6.50;;;8.10;70.10;;;;;;5072240;28;20025;-59
2021/04/09 02:19:10;;;;;;;7.97;4.53;;;8.10;70.20;;;;;;5073921;28;20055;-69
2021/04/09 02:21:37;;;;;;;13.88;7.35;;;8.10;70.20;;;;;;5074473;28;20063;-59
2021/04/09 02:24:08;;;;;;;12.15;5.95;;;8.10;70.30;;;;;;5074521;28;20067;-60
2021/04/09 02:26:36;;;;;;;10.25;5.10;;;8.20;70.40;;;;;;5055987;28;20028;-60
2021/04/09 02:29:05;;;;;;;12.85;5.95;;;8.20;70.40;;;;;;5075041;28;20071;-60
2021/04/09 02:31:31;;;;;;;14.65;6.10;;;8.20;70.50;;;;;;5074081;28;20123;-60
2021/04/09 02:33:57;;;;;;;14.00;6.00;;;8.20;70.50;;;;;;5068022;28;20123;-60
2021/04/09 02:36:26;;;;;;;12.30;6.32;;;8.10;70.50;;;;;;5072032;28;20025;-60
2021/04/09 02:38:55;;;;;;;6.47;4.70;;;8.20;70.60;;;;;;5062112;28;20099;-60
2021/04/09 02:41:23;;;;;;;13.07;6.80;;;8.20;70.70;;;;;;5067231;28;20036;-60
2021/04/09 02:43:49;;;;;;;7.50;4.57;;;8.20;70.70;;;;;;5068478;28;20028;-60
2021/04/09 02:46:39;;;;;;;20.23;6.55;;;8.20;70.90;;;;;;5070931;28;20070;-60
2021/04/09 02:49:18;;;;;;;12.27;6.43;;;8.10;70.90;;;;;;5072443;28;20491;-60
2021/04/09 02:51:45;;;;;;;12.10;6.18;;;8.10;71.00;;;;;;5072002;28;20496;-60
2021/04/09 02:54:15;;;;;;;11.00;6.60;;;8.20;71.00;;;;;;5055182;28;20037;-60
2021/04/09 02:56:42;;;;;;;9.70;5.47;;;8.20;71.10;;;;;;5074101;28;20085;-60
2021/04/09 02:59:13;;;;;;;13.43;6.57;;;8.20;71.10;;;;;;5073708;28;20105;-59
2021/04/09 03:01:45;;;;;;;13.32;7.20;;;8.10;71.20;;;;;;5071213;28;20028;-60
2021/04/09 03:04:11;;;;;;;13.60;6.05;;;8.20;71.20;;;;;;5073877;28;20077;-60
2021/04/09 03:06:38;;;;;;;15.30;7.18;;;8.20;71.30;;;;;;5068672;28;20032;-60
2021/04/09 03:09:05;;;;;;;14.98;6.90;;;8.20;71.50;;;;;;5048900;28;20504;-60
2021/04/09 03:11:34;;;;;;;13.73;7.38;;;8.10;71.50;;;;;;5073424;28;20123;-60
2021/04/09 03:14:04;;;;;;;14.90;7.60;;;8.10;71.60;;;;;;5073401;28;20580;-60
2021/04/09 03:16:38;;;;;;;15.70;6.47;;;8.20;71.70;;;;;;5073910;28;20036;-60
2021/04/09 03:19:04;;;;;;;13.43;6.53;;;8.10;71.80;;;;;;5063754;28;20024;-60
2021/04/09 03:21:29;;;;;;;10.43;4.82;;;8.10;71.90;;;;;;5073192;28;20028;-60
2021/04/09 03:23:55;;;;;;;9.48;5.63;;;8.10;72.00;;;;;;5073986;28;20020;-60
2021/04/09 03:26:21;;;;;;;14.93;7.43;;;8.10;72.00;;;;;;5073874;28;20021;-60
2021/04/09 03:28:46;;;;;;;15.57;6.97;;;8.20;72.20;;;;;;5073092;28;20030;-60
2021/04/09 03:31:12;;;;;;;13.48;6.82;;;8.10;72.00;;;;;;5073975;28;20037;-60
2021/04/09 03:33:38;;;;;;;8.88;5.68;;;8.10;72.00;;;;;;5073651;28;20020;-60
2021/04/09 03:36:04;;;;;;;11.68;7.35;;;8.10;72.10;;;;;;5073086;28;20039;-60
2021/04/09 03:38:30;;;;;;;7.25;4.53;;;8.10;72.30;;;;;;5056019;28;20060;-60
2021/04/09 03:40:55;;;;;;;10.30;5.65;;;8.20;72.30;;;;;;5038081;28;20479;-60
2021/04/09 03:43:21;;;;;;;14.48;6.90;;;8.20;72.30;;;;;;5065487;28;20038;-60
2021/04/09 03:45:47;;;;;;;18.30;7.07;;;8.20;72.40;;;;;;5068894;28;20108;-60
2021/04/09 03:48:12;;;;;;;10.02;5.57;;;8.20;72.40;;;;;;5064110;28;20091;-60
2021/04/09 03:50:38;;;;;;;12.43;4.95;;;8.20;72.50;;;;;;5055954;28;20455;-60
2021/04/09 03:53:04;;;;;;;15.35;7.38;;;8.20;72.40;;;;;;5053500;28;20056;-60
2021/04/09 03:55:33;;;;;;;23.85;8.13;;;8.20;72.50;;;;;;5053069;28;20090;-60
2021/04/09 03:57:58;;;;;;;19.25;7.13;;;8.20;72.50;;;;;;5052702;28;20522;-60
2021/04/09 04:00:24;;;;;;;13.20;6.78;;;8.20;72.40;;;;;;5053311;28;20041;-60
2021/04/09 04:02:51;;;;;;;12.88;6.65;;;8.20;72.50;;;;;;5052589;28;20021;-60
2021/04/09 04:05:18;;;;;;;12.13;6.95;;;8.20;72.60;;;;;;5053260;28;20033;-60
2021/04/09 04:07:44;;;;;;;9.23;5.45;;;8.30;72.70;;;;;;5053162;28;20021;-60
2021/04/09 04:10:10;;;;;;;16.60;6.28;;;8.20;72.60;;;;;;5052317;28;20033;-60
2021/04/09 04:12:36;;;;;;;9.95;4.90;;;8.20;72.70;;;;;;5053221;28;20029;-60
2021/04/09 04:15:02;;;;;;;11.18;5.50;;;8.20;72.80;;;;;;5053208;28;20020;-60
2021/04/09 04:17:28;;;;;;;8.77;5.10;;;8.20;72.90;;;;;;5052376;28;20044;-60
2021/04/09 04:19:54;;;;;;;18.08;7.88;;;8.20;72.90;;;;;;5052444;28;20465;-60
2021/04/09 04:22:19;;;;;;;16.15;7.28;;;8.20;72.90;;;;;;5052851;28;20059;-60
2021/04/09 04:24:45;;;;;;;10.30;4.93;;;8.20;73.00;;;;;;5052020;28;20040;-61
2021/04/09 04:27:11;;;;;;;11.23;5.05;;;8.20;73.00;;;;;;5052911;28;20037;-60
2021/04/09 04:29:37;;;;;;;16.23;8.75;;;8.20;73.10;;;;;;5052495;28;20021;-60
2021/04/09 04:32:02;;;;;;;12.10;6.40;;;8.20;73.10;;;;;;5052000;28;20399;-60
2021/04/09 04:34:28;;;;;;;14.05;6.50;;;8.20;73.00;;;;;;5052702;28;20032;-60
2021/04/09 04:36:54;;;;;;;16.10;7.03;;;8.20;73.10;;;;;;5052618;28;20064;-60
2021/04/09 04:39:20;;;;;;;11.90;6.75;;;8.20;73.20;;;;;;5051939;28;20058;-60
2021/04/09 04:41:46;;;;;;;16.40;8.23;;;8.20;73.20;;;;;;5048157;28;20037;-60
2021/04/09 04:44:12;;;;;;;11.73;6.95;;;8.20;73.30;;;;;;5067069;28;20492;-60
2021/04/09 04:46:38;;;;;;;13.57;7.53;;;8.20;74.00;;;;;;5063626;28;20162;-60
2021/04/09 04:49:04;;;;;;;16.60;9.25;;;8.20;73.40;;;;;;5068729;28;20411;-60
2021/04/09 04:51:30;;;;;;;11.02;7.35;;;8.30;73.50;;;;;;5052579;28;20033;-60
2021/04/09 04:53:56;;;;;;;11.73;6.80;;;8.20;73.40;;;;;;5051307;28;20045;-60
2021/04/09 04:56:22;;;;;;;13.13;6.40;;;8.20;73.60;;;;;;5052640;28;20043;-60
2021/04/09 04:58:47;;;;;;;19.25;7.82;;;8.20;73.60;;;;;;5052660;28;20107;-60
2021/04/09 05:01:13;;;;;;;17.10;8.38;;;8.20;74.40;;;;;;5051731;28;20029;-60
2021/04/09 05:03:38;;;;;;;19.38;8.60;;;8.20;73.80;;;;;;5052008;28;20048;-60
2021/04/09 05:06:07;;;;;;;14.32;7.68;;;8.20;73.90;;;;;;5054013;28;20032;-60
2021/04/09 05:08:33;;;;;;;18.52;7.20;;;8.20;74.00;;;;;;5072212;28;20039;-60
2021/04/09 05:10:59;;;;;;;17.00;6.80;;;8.20;74.00;;;;;;5072100;28;20037;-60
2021/04/09 05:13:24;;;;;;;14.77;7.30;;;8.20;74.20;;;;;;5071091;28;20370;-61
2021/04/09 05:15:50;;;;;;;14.43;8.10;;;8.20;74.40;;;;;;5071227;28;20086;-59
2021/04/09 05:18:15;;;;;;;17.02;6.68;;;8.20;74.50;;;;;;5069707;28;20016;-60
2021/04/09 05:20:41;;;;;;;15.45;7.10;;;8.20;74.50;;;;;;5070288;28;20025;-60
2021/04/09 05:23:07;;;;;;;15.15;8.13;;;8.10;74.60;;;;;;5070942;28;20075;-60
2021/04/09 05:25:33;;;;;;;17.75;8.30;;;8.10;74.70;;;;;;5070815;28;20031;-60
2021/04/09 05:27:58;;;;;;;12.63;6.53;;;8.10;74.90;;;;;;5069797;28;20024;-59
2021/04/09 05:30:27;;;;;;;11.25;6.57;;;8.10;74.90;;;;;;5069938;28;20966;-60
2021/04/09 05:32:54;;;;;;;13.20;7.18;;;8.10;75.10;;;;;;5074688;28;20052;-59
2021/04/09 05:35:24;;;;;;;17.75;7.43;;;8.00;75.00;;;;;;5068346;28;20021;-60
2021/04/09 05:37:50;;;;;;;17.63;7.22;;;8.10;75.20;;;;;;5058064;28;20041;-60
2021/04/09 05:40:17;;;;;;;19.50;9.05;;;8.00;75.30;;;;;;5063378;28;20032;-60
2021/04/09 05:42:43;;;;;;;18.98;9.13;;;8.10;75.40;;;;;;5075212;28;20478;-60
2021/04/09 05:45:09;;;;;;;13.52;7.13;;;8.00;75.40;;;;;;5075821;28;20064;-61
2021/04/09 05:47:35;;;;;;;14.95;7.00;;;8.00;75.60;;;;;;5075662;28;20036;-61
2021/04/09 05:50:00;;;;;;;11.77;6.68;;;8.00;75.60;;;;;;5062454;28;20140;-60
2021/04/09 05:52:26;;;;;;;20.80;8.25;;;8.00;75.70;;;;;;5057775;28;20045;-60
2021/04/09 05:54:52;;;;;;;13.50;7.43;;;8.00;75.90;;;;;;5057603;28;20055;-60
2021/04/09 05:57:17;;;;;;;18.75;7.47;;;8.10;76.10;;;;;;5060466;28;20061;-61
2021/04/09 05:59:47;;;;;;;14.52;7.95;;;8.00;76.20;;;;;;5061248;28;20033;-61
2021/04/09 06:02:13;;;;;;;16.38;7.40;;;8.10;76.40;;;;;;5067007;28;20040;-60
2021/04/09 06:04:39;;;;;;;15.80;8.43;;;8.00;76.50;;;;;;5065326;28;20036;-60
2021/04/09 06:07:04;;;;;;;13.95;6.32;;;8.10;76.80;;;;;;5056542;28;20039;-60
2021/04/09 06:09:30;;;;;;;12.57;5.78;;;8.00;76.90;;;;;;5074675;28;20036;-60
2021/04/09 06:11:58;;;;;;;13.02;6.28;;;8.10;77.10;;;;;;5075422;28;20121;-60
2021/04/09 06:14:24;;;;;;;17.30;4.72;;;8.10;77.20;;;;;;5075268;28;20025;-60
2021/04/09 06:16:49;;;;;;;22.00;8.63;;;8.10;77.30;;;;;;5074569;28;20036;-60
2021/04/09 06:19:15;;;;;;;17.38;7.85;;;8.10;77.40;;;;;;5074904;28;20032;-60
2021/04/09 06:21:41;;;;;;;18.58;7.97;;;8.10;77.50;;;;;;5075375;28;20035;-60
2021/04/09 06:24:10;;;;;;;8.70;4.97;;;8.10;77.70;;;;;;5074460;28;20032;-60
2021/04/09 06:26:37;;;;;;;15.15;5.78;;;8.10;77.80;;;;;;5074869;28;20036;-60
2021/04/09 06:29:03;;;;;;;12.55;5.95;;;8.20;77.90;;;;;;5074802;28;20078;-60
2021/04/09 06:31:29;;;;;;;11.80;6.43;;;8.20;78.00;;;;;;5074164;28;20044;-60
2021/04/09 06:33:56;;;;;;;13.60;6.85;;;8.20;78.00;;;;;;5074861;28;20032;-60
2021/04/09 06:36:21;;;;;;;15.52;8.25;;;8.20;78.20;;;;;;5074988;28;20035;-60
2021/04/09 06:38:47;;;;;;;14.02;7.20;;;8.20;78.30;;;;;;5074255;28;20115;-60
2021/04/09 06:41:13;;;;;;;18.08;6.97;;;8.20;78.40;;;;;;5073898;28;20412;-60
2021/04/09 06:43:39;;;;;;;13.55;6.20;;;8.20;78.50;;;;;;5073906;28;20556;-60
2021/04/09 06:46:05;;;;;;;17.27;6.63;;;8.20;78.50;;;;;;5074176;28;20040;-60
2021/04/09 06:48:31;;;;;;;12.88;5.63;;;8.20;78.70;;;;;;5074684;28;20099;-60
2021/04/09 06:50:57;;;;;;;10.82;5.78;;;8.20;78.80;;;;;;5055725;28;20128;-60
2021/04/09 06:53:24;;;;;;;16.33;7.38;;;8.20;79.00;;;;;;5053935;28;20045;-60
2021/04/09 06:55:51;;;;;;;12.27;4.53;;;8.20;79.00;;;;;;5054549;28;20028;-60
2021/04/09 06:58:20;;;;;;;16.05;6.75;;;8.30;79.20;;;;;;5054741;28;20396;-60
2021/04/09 07:00:59;;;;;;;11.55;4.25;;;8.30;79.30;;;;;;5053609;28;20044;-60
2021/04/09 07:03:25;;;;;;;13.40;7.05;;;8.30;79.60;;;;;;5054594;28;20578;-60
2021/04/09 07:05:51;;;;;;;7.65;4.40;;;8.30;79.60;;;;;;5053570;28;20104;-60
2021/04/09 07:08:16;;;;;;;12.57;6.47;;;8.30;79.80;;;;;;5054461;28;20045;-60
2021/04/09 07:10:42;;;;;;;14.30;6.25;;;8.30;79.90;;;;;;5054291;28;20439;-60
2021/04/09 07:13:10;;;;;;;19.02;6.78;;;8.30;79.90;;;;;;5053148;28;20151;-60
2021/04/09 07:15:37;;;;;;;12.05;6.05;;;8.30;80.10;;;;;;5054326;28;20025;-60
2021/04/09 07:18:03;;;;;;;16.23;6.93;;;8.40;80.30;;;;;;5054321;28;20108;-60
2021/04/09 07:20:31;;;;;;;13.65;6.40;;;8.40;80.30;;;;;;5053600;28;20029;-60
2021/04/09 07:22:59;;;;;;;15.25;6.22;;;8.40;80.50;;;;;;5054040;28;20036;-60
2021/04/09 07:25:27;;;;;;;18.17;7.15;;;8.50;80.70;;;;;;5054111;28;20112;-60
2021/04/09 07:28:15;;;;;;;15.45;5.43;;;8.50;80.80;;;;;;5053181;28;20371;-60
2021/04/09 07:30:59;;;;;;;12.57;5.18;;;8.50;80.80;;;;;;5054111;28;20033;-60
2021/04/09 07:33:26;;;;;;;12.52;6.93;;;8.50;80.80;;;;;;5054035;28;20037;-60
2021/04/09 07:36:00;;;;;;;13.07;6.32;;;8.50;81.00;;;;;;5053302;28;20045;-60
2021/04/09 07:38:35;;;;;;;;;;;8.60;81.30;;;;;;5053945;28;20115;-60
2021/04/09 07:41:08;;;;;;;14.13;6.38;;;8.60;81.30;;;;;;5060213;28;19915;-60
2021/04/09 07:43:42;;;;;;;13.57;3.85;;;8.60;81.40;;;;;;5073639;28;20396;-60
2021/04/09 07:46:20;;;;;;;12.98;6.18;;;8.60;81.70;;;;;;5072880;28;20033;-60
2021/04/09 07:48:45;;;;;;;19.08;6.47;;;8.60;81.70;;;;;;5071701;28;20037;-60
2021/04/09 07:51:18;;;;;;;12.30;4.03;;;8.70;81.70;;;;;;5053638;28;20376;-60
2021/04/09 07:53:46;;;;;;;12.70;5.37;;;8.70;81.90;;;;;;5053376;28;20137;-60
2021/04/09 07:56:16;;;;;;;15.88;5.32;;;8.70;81.90;;;;;;5052899;28;20404;-60
2021/04/09 07:58:43;;;;;;;15.50;4.68;;;8.70;82.00;;;;;;5053510;28;20431;-60
2021/04/09 08:01:19;;;;;;;10.68;4.03;;;8.70;82.20;;;;;;5052833;28;20488;-60
2021/04/09 08:03:45;;;;;;;16.00;4.47;;;8.80;82.40;;;;;;5052844;28;20033;-62
2021/04/09 08:06:34;;;;;;;13.98;5.38;;;8.90;82.70;;;;;;5053308;28;20107;-61
2021/04/09 08:09:03;;;;;;;10.95;5.53;;;8.80;82.90;;;;;;5052545;28;20078;-60
2021/04/09 08:11:38;;;;;;;10.70;5.00;;;8.80;83.10;;;;;;5053143;28;20033;-60
2021/04/09 08:14:11;;;;;;;14.48;4.60;;;8.90;83.30;;;;;;5053344;28;20029;-61
2021/04/09 08:16:40;;;;;;;11.38;5.65;;;8.90;83.50;;;;;;5052624;28;20041;-61
2021/04/09 08:19:08;;;;;;;7.53;3.55;;;8.90;83.50;;;;;;5064028;28;20063;-61
2021/04/09 08:21:43;;;;;;;10.85;4.95;;;9.00;83.50;;;;;;5066952;28;20025;-61
2021/04/09 08:24:10;;;;;;;11.02;4.88;;;8.90;83.40;;;;;;5055145;28;20120;-61
2021/04/09 08:26:37;;;;;;;10.02;4.63;;;9.00;83.40;;;;;;5068982;28;20040;-61
2021/04/09 08:29:04;;;;;;;10.15;3.95;;;9.00;83.30;;;;;;5071813;28;20029;-63
2021/04/09 08:31:31;;;;;;;19.27;5.25;;;9.10;83.30;;;;;;5071795;28;20032;-63
2021/04/09 08:33:58;;;;;;;7.88;3.53;;;9.10;83.30;;;;;;5060466;28;20057;-63
2021/04/09 08:36:25;;;;;;;12.50;4.82;;;9.10;83.30;;;;;;5061573;28;20036;-63
2021/04/09 08:38:52;;;;;;;9.27;3.67;;;9.10;83.20;;;;;;5063012;28;20028;-63
2021/04/09 08:41:21;;;;;;;16.45;4.47;;;9.10;83.20;;;;;;5072678;28;20036;-64
2021/04/09 08:43:47;;;;;;;5.60;3.28;;;9.10;83.30;;;;;;5071674;28;20135;-60
2021/04/09 08:46:14;;;;;;;8.88;3.28;;;9.10;83.50;;;;;;5071466;28;20028;-60
2021/04/09 08:48:43;;;;;;;9.77;2.80;;;9.10;83.50;;;;;;5071952;28;20021;-60
2021/04/09 08:51:12;;;;;;;12.05;3.60;;;9.10;83.60;;;;;;5071238;28;20376;-60
2021/04/09 08:53:38;;;;;;;6.65;2.55;;;9.20;83.60;;;;;;5071826;28;20045;-60
2021/04/09 08:56:04;;;;;;;5.47;2.65;;;9.10;83.50;;;;;;5072050;28;20032;-60
2021/04/09 08:58:43;;;;;;;8.68;3.33;;;9.20;83.60;;;;;;5072004;28;20678;-61
2021/04/09 09:01:15;;;;;;;8.13;3.25;;;9.30;83.60;;;;;;5071901;28;20392;-61
2021/04/09 09:03:41;;;;;;;11.63;4.03;;;9.20;83.60;;;;;;5061013;28;20043;-61
2021/04/09 09:06:09;;;;;;;13.88;4.28;;;9.30;83.60;;;;;;5067174;28;20032;-61
2021/04/09 09:08:50;;;;;;;10.02;3.53;;;9.30;83.70;;;;;;5071949;28;20499;-61
2021/04/09 09:11:54;;;;;;;13.90;4.72;;;9.30;83.80;;;;;;5072047;28;20392;-61
2021/04/09 09:14:41;;;;;;;16.67;4.22;;;9.30;83.90;;;;;;5068567;28;20029;-64
2021/04/09 09:17:19;;;;;;;13.55;4.00;;;9.30;83.90;;;;;;5066454;28;20059;-64
2021/04/09 09:19:49;;;;;;;9.85;3.10;;;9.30;83.90;;;;;;5057690;28;20032;-64
2021/04/09 09:22:20;;;;;;;5.35;2.53;;;9.40;84.00;;;;;;5072194;28;20077;-64
2021/04/09 09:25:06;;;;;;;7.88;3.10;;;9.30;84.00;;;;;;5071257;28;20086;-64
2021/04/09 09:27:45;;;;;;;9.88;2.58;;;9.40;84.00;;;;;;5068560;28;20039;-61
2021/04/09 09:30:33;;;;;;;12.07;2.80;;;9.30;83.80;;;;;;5069140;28;20032;-61
2021/04/09 09:33:27;;;;;;;7.00;3.20;;;9.40;83.80;;;;;;5071695;28;20039;-60
2021/04/09 09:36:09;;;;;;;10.40;3.08;;;9.40;83.90;;;;;;5069260;28;20433;-61
2021/04/09 09:38:55;;;;;;;9.27;3.30;;;9.40;83.90;;;;;;5071719;28;20078;-61
2021/04/09 09:41:36;;;;;;;11.55;3.78;;;9.40;84.00;;;;;;5063187;28;20032;-69
2021/04/09 09:44:03;;;;;;;8.07;3.97;;;9.40;84.00;;;;;;5069871;28;20033;-60
2021/04/09 09:46:50;;;;;;;5.72;2.58;;;9.40;84.00;;;;;;5071613;28;20422;-61
2021/04/09 09:49:17;;;;;;;6.80;2.35;;;9.40;84.10;;;;;;5070614;28;20078;-60
2021/04/09 09:51:42;;;;;;;10.98;3.20;;;9.40;84.10;;;;;;5071041;28;20043;-61
2021/04/09 09:54:08;;;;;;;9.88;3.20;;;9.40;84.00;;;;;;5071555;28;20484;-60
2021/04/09 09:56:34;;;;;;;5.88;2.05;;;9.30;84.10;;;;;;5070873;28;20426;-60
2021/04/09 09:59:00;;;;;;;6.90;2.65;;;9.40;84.30;;;;;;5071415;28;20055;-61
2021/04/09 10:01:26;;;;;;;11.50;3.13;;;9.40;84.30;;;;;;5071543;28;20043;-60
2021/04/09 10:03:55;;;;;;;9.38;3.03;;;9.50;84.30;;;;;;5071360;28;20031;-62
2021/04/09 10:06:26;;;;;;;11.00;3.38;;;9.50;84.30;;;;;;5067998;28;20467;-62
2021/04/09 10:08:52;;;;;;;11.57;3.47;;;9.60;84.30;;;;;;5070863;28;20083;-62
2021/04/09 10:11:20;;;;;;;9.73;3.72;;;9.60;84.30;;;;;;5070721;28;20093;-62
2021/04/09 10:13:48;;;;;;;11.50;3.22;;;9.60;84.20;;;;;;5063479;28;20032;-62
2021/04/09 10:16:19;;;;;;;13.80;3.03;;;9.60;84.30;;;;;;5054824;28;20046;-62
2021/04/09 10:18:48;;;;;;;15.10;3.72;;;9.60;84.30;;;;;;5066197;28;20471;-62
2021/04/09 10:21:31;;;;;;;13.75;2.72;;;9.70;84.30;;;;;;5074897;28;20489;-62
2021/04/09 10:24:17;;;;;;;6.95;3.20;;;9.70;84.30;;;;;;5074625;28;20044;-62
2021/04/09 10:26:58;;;;;;;7.78;3.05;;;9.70;84.20;;;;;;5073975;28;20544;-62
2021/04/09 10:29:38;;;;;;;11.75;3.72;;;9.70;84.20;;;;;;5075106;28;20384;-62
2021/04/09 10:32:12;;;;;;;9.88;3.38;;;9.70;84.10;;;;;;5037161;28;20075;-62
2021/04/09 10:34:38;;;;;;;6.20;2.25;;;9.70;84.00;;;;;;5069724;28;20485;-62
2021/04/09 10:37:06;;;;;;;11.45;3.60;;;9.60;84.00;;;;;;5074268;28;20116;-62
2021/04/09 10:39:32;;;;;;;7.32;2.20;;;9.70;84.00;;;;;;5074845;28;20036;-62
2021/04/09 10:42:02;;;;;;;4.90;2.38;;;9.80;84.00;;;;;;5074448;28;20039;-62
2021/04/09 10:44:29;;;;;;;15.50;4.15;;;9.80;84.00;;;;;;5074254;28;20127;-62
2021/04/09 10:47:04;;;;;;;10.02;3.72;;;9.80;84.00;;;;;;5074064;28;20124;-62
2021/04/09 10:49:34;;;;;;;6.07;2.88;;;9.80;83.90;;;;;;5073111;28;20031;-61
2021/04/09 10:52:15;;;;;;;7.15;3.42;;;9.90;83.90;;;;;;5075216;28;20135;-60
2021/04/09 10:54:43;;;;;;;7.53;3.00;;;9.80;83.70;;;;;;5065854;28;20077;-60
2021/04/09 10:57:16;;;;;;;9.93;3.13;;;9.80;84.30;;;;;;5074432;28;20099;-60
2021/04/09 10:59:47;;;;;;;;;;;9.80;83.70;;;;;;5073340;28;20031;-61
2021/04/09 11:02:19;;;;;;;9.88;2.88;;;9.90;83.60;;;;;;5073921;28;20260;-60
2021/04/09 11:04:59;;;;;;;10.25;3.20;;;9.90;83.50;;;;;;5071403;28;20107;-60
2021/04/09 11:07:44;;;;;;;6.03;2.85;;;9.90;83.40;;;;;;5074050;28;20107;-61
2021/04/09 11:10:16;;;;;;;7.45;2.13;;;10.00;83.30;;;;;;5072298;28;20029;-61
2021/04/09 11:12:46;;;;;;;9.57;3.03;;;10.00;83.20;;;;;;5073084;28;20041;-61
2021/04/09 11:15:16;;;;;;;7.15;2.63;;;10.00;83.10;;;;;;5074210;28;20521;-60
2021/04/09 11:18:13;;;;;;;9.32;2.50;;;10.10;82.90;;;;;;5073950;28;20099;-60
2021/04/09 11:20:47;;;;;;;7.43;2.70;;;10.20;82.70;;;;;;5067637;28;20472;-61
2021/04/09 11:23:15;;;;;;;5.85;2.45;;;10.20;82.50;;;;;;5073541;28;20029;-61
2021/04/09 11:25:45;;;;;;;2.67;1.50;;;10.20;82.20;;;;;;5073779;28;20043;-61
2021/04/09 11:28:28;;;;;;;8.55;1.52;;;10.20;82.20;;;;;;5072535;28;20387;-62
2021/04/09 11:30:58;;;;;;;6.65;1.65;;;10.20;82.20;;;;;;5073862;28;20032;-60
2021/04/09 11:33:38;;;;;;;1.67;1.42;;;10.30;82.00;;;;;;5067986;28;20052;-60
2021/04/09 11:36:23;;;;;;;7.18;1.80;;;10.30;81.90;;;;;;5066594;28;20383;-60
2021/04/09 11:38:51;;;;;;;7.05;2.35;;;10.30;81.80;;;;;;5072889;28;20028;-60
2021/04/09 11:41:27;;;;;;;5.30;2.00;;;10.40;81.70;;;;;;5072988;28;20032;-60
2021/04/09 11:43:59;;;;;;;6.93;1.77;;;10.40;81.60;;;;;;5073316;28;20037;-60
2021/04/09 11:46:35;;;;;;;7.72;2.25;;;10.40;81.40;;;;;;5073732;28;20025;-60
2021/04/09 11:49:02;;;;;;;7.97;2.35;;;10.40;81.20;;;;;;5069606;28;20032;-60
2021/04/09 11:51:29;;;;;;;14.68;1.58;;;10.40;80.90;;;;;;5053544;28;20040;-60
2021/04/09 11:54:04;;;;;;;10.57;2.33;;;10.40;80.90;;;;;;5067281;28;20044;-60
2021/04/09 11:56:48;;;;;;;13.20;2.45;;;10.40;80.90;;;;;;5053439;28;20342;-60
2021/04/09 11:59:18;;;;;;;7.20;1.98;;;10.40;80.40;;;;;;5053503;28;20108;-60
2021/04/09 12:01:45;;;;;;;11.80;2.15;;;10.40;80.40;;;;;;5060437;28;20090;-61
2021/04/09 12:04:38;;;;;;;14.85;2.40;;;10.50;80.40;;;;;;5072103;28;20032;-61
2021/04/09 12:07:12;;;;;;;14.10;2.38;;;10.50;80.30;;;;;;5067550;28;20111;-60
2021/04/09 12:09:42;;;;;;;11.85;1.85;;;10.50;80.10;;;;;;5071772;28;20028;-61
2021/04/09 12:12:10;;;;;;;5.07;1.80;;;10.60;80.10;;;;;;5072600;28;20423;-60
2021/04/09 12:14:57;;;;;;;17.73;2.33;;;10.60;80.10;;;;;;5072827;28;20027;-60
2021/04/09 12:17:25;;;;;;;7.07;1.40;;;10.60;80.10;;;;;;5071853;28;20028;-60
2021/04/09 12:19:53;;;;;;;11.65;2.08;;;10.60;80.00;;;;;;5057917;28;20124;-60
2021/04/09 12:22:19;;;;;;;22.70;2.30;;;10.70;80.10;;;;;;5054113;28;20028;-61
2021/04/09 12:24:45;;;;;;;8.93;1.75;;;10.60;79.80;;;;;;5052394;28;20372;-60
2021/04/09 12:27:12;;;;;;;10.48;2.38;;;10.70;79.90;;;;;;5052484;28;20043;-61
2021/04/09 12:29:38;;;;;;;15.90;2.80;;;10.70;79.70;;;;;;5053590;28;20032;-62
2021/04/09 12:32:05;;;;;;;13.40;2.28;;;10.70;79.80;;;;;;5059879;28;20041;-61
2021/04/09 12:34:31;;;;;;;12.70;2.17;;;10.70;79.70;;;;;;5059106;28;20177;-60
2021/04/09 12:36:57;;;;;;;8.65;1.80;;;10.80;79.50;;;;;;5066210;28;20036;-60
2021/04/09 12:39:24;;;;;;;13.43;2.13;;;10.80;79.30;;;;;;5066350;28;20044;-60
2021/04/09 12:41:50;;;;;;;15.80;2.22;;;10.80;79.10;;;;;;5066960;28;20059;-60
2021/04/09 12:44:19;;;;;;;8.50;1.63;;;10.80;78.90;;;;;;5066764;28;20070;-60
2021/04/09 12:46:48;;;;;;;6.68;1.73;;;10.80;78.80;;;;;;5067033;28;20086;-60
2021/04/09 12:49:21;;;;;;;3.55;1.10;;;10.80;78.80;;;;;;5068403;28;20024;-61
2021/04/09 12:51:51;;;;;;;9.43;1.50;;;10.70;78.60;;;;;;5068632;28;20047;-61
2021/04/09 12:54:18;;;;;;;11.13;2.33;;;10.70;78.60;;;;;;5069794;28;20044;-61
2021/04/09 12:56:43;;;;;;;14.98;2.75;;;10.70;78.60;;;;;;5069586;28;20033;-61
2021/04/09 12:59:09;;;;;;;14.80;1.77;;;10.60;78.50;;;;;;5069027;28;20495;-61
2021/04/09 13:01:35;;;;;;;8.02;2.00;;;10.60;78.40;;;;;;5068249;28;20052;-61